Time;durP1;ratioP1;P1;durP2;ratioP2;P2;SDS_P1;SDS_P2;PMS_P1;PMS_P2;Temp;Humidity;BMP_temperature;BMP_pressure;BME280_temperature;BME280_humidity;BME280_pressure;Samples;Min_cycle;Max_cycle;Signal;HPM_P1;HPM_P2
2021/04/21 00:01:23;;;;;;;17.60;12.73;;;;;;;8.41;70.25;96651.75;4972577;28;20592;-69
2021/04/21 00:03:51;;;;;;;15.13;12.33;;;;;;;8.23;71.33;96644.66;4971513;28;20188;-67
2021/04/21 00:06:18;;;;;;;15.37;12.67;;;;;;;8.17;71.58;96642.91;4972431;28;20661;-67
2021/04/21 00:08:44;;;;;;;13.70;12.30;;;;;;;8.13;71.57;96644.34;4971591;28;20193;-67
2021/04/21 00:11:10;;;;;;;15.83;11.77;;;;;;;8.04;72.15;96639.59;4972376;28;20188;-67
2021/04/21 00:13:35;;;;;;;14.43;12.07;;;;;;;8.07;71.84;96634.78;4955074;28;20680;-69
2021/04/21 00:16:01;;;;;;;18.90;13.00;;;;;;;8.09;72.02;96634.53;4971855;28;20212;-67
2021/04/21 00:18:28;;;;;;;15.03;11.73;;;;;;;7.97;72.49;96629.22;4954788;28;20185;-68
2021/04/21 00:20:59;;;;;;;14.20;11.77;;;;;;;7.94;72.48;96630.44;4953884;28;20184;-67
2021/04/21 00:23:27;;;;;;;14.80;11.60;;;;;;;7.97;72.62;96631.81;4972350;28;20184;-67
2021/04/21 00:25:56;;;;;;;14.00;12.23;;;;;;;7.99;72.18;96627.19;4964033;28;20189;-67
2021/04/21 00:28:24;;;;;;;14.67;12.30;;;;;;;7.98;72.57;96620.38;4972377;28;20649;-67
2021/04/21 00:30:52;;;;;;;15.77;12.50;;;;;;;8.00;72.79;96630.59;4971231;28;20268;-68
2021/04/21 00:33:19;;;;;;;15.33;12.43;;;;;;;8.10;72.37;96629.09;4971956;28;20184;-66
2021/04/21 00:35:46;;;;;;;14.40;11.97;;;;;;;7.97;72.56;96624.00;4970606;28;20614;-66
2021/04/21 00:38:21;;;;;;;15.03;12.17;;;;;;;7.91;72.93;96627.47;4971635;28;20189;-67
2021/04/21 00:41:02;;;;;;;15.63;12.67;;;;;;;7.91;72.92;96619.66;4970835;28;20710;-66
2021/04/21 00:43:28;;;;;;;13.80;12.07;;;;;;;7.90;72.79;96616.25;4956961;28;20204;-67
2021/04/21 00:46:17;;;;;;;15.07;11.90;;;;;;;7.92;73.01;96626.44;4971370;28;20585;-67
2021/04/21 00:48:49;;;;;;;14.80;11.40;;;;;;;7.83;73.61;96617.28;4971331;28;20273;-66
2021/04/21 00:51:21;;;;;;;13.97;12.03;;;;;;;7.78;73.60;96614.53;4972199;28;20219;-67
2021/04/21 00:54:00;;;;;;;15.33;12.67;;;;;;;7.80;73.98;96605.47;4970688;28;20650;-67
2021/04/21 00:56:43;;;;;;;15.90;13.07;;;;;;;7.81;73.67;96609.66;4971753;28;20231;-67
2021/04/21 00:59:27;;;;;;;14.33;11.80;;;;;;;7.73;73.95;96609.94;4958809;28;20173;-66
2021/04/21 01:01:55;;;;;;;16.40;12.70;;;;;;;7.70;74.35;96605.16;4971153;28;20208;-68
2021/04/21 01:04:23;;;;;;;15.40;12.30;;;;;;;7.68;74.29;96601.97;4971978;28;20185;-67
2021/04/21 01:06:48;;;;;;;13.03;11.60;;;;;;;7.64;74.19;96602.59;4972562;28;20185;-66
2021/04/21 01:09:17;;;;;;;15.33;12.00;;;;;;;7.60;74.20;96597.00;4975038;28;20189;-67
2021/04/21 01:11:58;;;;;;;15.80;12.17;;;;;;;7.76;73.61;96601.69;4974593;28;20207;-67
2021/04/21 01:14:27;;;;;;;15.83;12.80;;;;;;;7.70;73.81;96593.91;4975466;28;20180;-67
2021/04/21 01:16:57;;;;;;;16.80;12.90;;;;;;;7.61;74.43;96592.59;4968990;28;20236;-67
2021/04/21 01:19:50;;;;;;;14.10;12.17;;;;;;;7.60;74.40;96591.78;4974770;28;20730;-67
2021/04/21 01:22:42;;;;;;;14.50;11.57;;;;;;;7.60;74.76;96594.41;4975239;28;20280;-67
2021/04/21 01:25:36;;;;;;;15.53;12.00;;;;;;;7.52;74.68;96585.00;4961787;28;20184;-67
2021/04/21 01:28:09;;;;;;;14.20;11.80;;;;;;;7.61;74.35;96589.97;4961325;28;20200;-68
2021/04/21 01:30:39;;;;;;;13.47;11.57;;;;;;;7.54;74.68;96582.19;4975205;28;20179;-67
2021/04/21 01:33:14;;;;;;;16.40;12.43;;;;;;;7.62;74.56;96583.75;4975032;28;20187;-67
2021/04/21 01:35:44;;;;;;;14.73;12.53;;;;;;;7.47;75.16;96590.06;4974094;28;20184;-71
2021/04/21 01:38:10;;;;;;;16.67;12.40;;;;;;;7.43;75.61;96594.13;4974752;28;20172;-67
2021/04/21 01:40:39;;;;;;;17.43;13.73;;;;;;;7.39;75.69;96586.94;4974279;28;20192;-69
2021/04/21 01:43:10;;;;;;;16.80;13.60;;;;;;;7.34;75.96;96592.78;4974691;28;20275;-67
2021/04/21 01:45:39;;;;;;;17.93;13.40;;;;;;;7.38;75.98;96587.94;4974411;28;20634;-67
2021/04/21 01:48:11;;;;;;;17.57;13.27;;;;;;;7.37;76.08;96591.53;4974021;28;20185;-67
2021/04/21 01:50:37;;;;;;;17.67;13.10;;;;;;;7.34;76.24;96581.56;4974314;28;20263;-67
2021/04/21 01:53:15;;;;;;;17.73;13.90;;;;;;;7.35;76.33;96583.97;4974014;28;20292;-68
2021/04/21 01:55:46;;;;;;;19.23;13.50;;;;;;;7.25;76.82;96591.41;4973077;28;20236;-71
2021/04/21 01:58:30;;;;;;;17.67;12.33;;;;;;;7.22;76.95;96586.63;4974613;28;20192;-67
2021/04/21 02:01:10;;;;;;;17.80;12.57;;;;;;;7.23;76.91;96595.25;4973565;28;20185;-67
2021/04/21 02:03:42;;;;;;;16.63;12.63;;;;;;;7.31;76.81;96587.97;4974258;28;20259;-67
2021/04/21 02:06:13;;;;;;;14.93;12.40;;;;;;;7.23;76.43;96596.06;4974333;28;20211;-67
2021/04/21 02:09:17;;;;;;;15.83;12.47;;;;;;;7.19;76.87;96594.84;4974366;28;20650;-72
2021/04/21 02:12:15;;;;;;;17.00;12.47;;;;;;;7.12;77.35;96586.31;4932303;29;20189;-67
2021/04/21 02:15:01;;;;;;;18.43;13.87;;;;;;;7.16;77.58;96584.88;4933107;29;20632;-71
2021/04/21 02:17:42;;;;;;;17.43;13.37;;;;;;;7.09;77.55;96591.91;4965668;28;20271;-67
2021/04/21 02:20:33;;;;;;;16.63;11.70;;;;;;;7.07;77.49;96592.16;4968343;28;20177;-67
2021/04/21 02:23:08;;;;;;;16.50;12.60;;;;;;;6.99;78.10;96596.78;4973079;28;20831;-66
2021/04/21 02:26:02;;;;;;;16.03;12.73;;;;;;;6.97;78.38;96596.97;4973776;28;20177;-68
2021/04/21 02:28:42;;;;;;;16.50;12.37;;;;;;;6.83;78.80;96595.47;4973511;28;20196;-67
2021/04/21 02:31:29;;;;;;;18.00;13.30;;;;;;;6.85;79.04;96600.47;4973774;28;20181;-67
2021/04/21 02:34:25;;;;;;;17.00;12.83;;;;;;;6.79;79.23;96604.72;4965754;28;20180;-69
2021/04/21 02:37:15;;;;;;;15.70;12.63;;;;;;;7.04;78.46;96602.97;4954691;28;20233;-70
2021/04/21 02:40:14;;;;;;;17.80;13.93;;;;;;;6.99;78.28;96596.78;4973034;28;20535;-73
2021/04/21 02:42:48;;;;;;;17.70;13.30;;;;;;;6.84;79.04;96612.69;4973250;28;20177;-70
2021/04/21 02:45:30;;;;;;;17.13;13.90;;;;;;;6.71;79.36;96607.53;4973761;28;20181;-68
2021/04/21 02:48:29;;;;;;;17.80;14.10;;;;;;;6.58;80.39;96597.16;4957993;28;20191;-68
2021/04/21 02:51:07;;;;;;;16.17;13.27;;;;;;;6.57;80.31;96591.19;4948475;28;20189;-68
2021/04/21 02:53:50;;;;;;;18.23;13.50;;;;;;;6.49;80.63;96590.59;4972808;28;20203;-69
2021/04/21 02:56:24;;;;;;;17.10;13.70;;;;;;;6.51;80.67;96594.59;4955543;28;20224;-68
2021/04/21 02:59:08;;;;;;;18.93;14.10;;;;;;;6.51;80.54;96584.19;4971586;28;20199;-68
2021/04/21 03:01:51;;;;;;;20.13;15.23;;;;;;;6.59;80.19;96596.97;4973180;28;20185;-68
2021/04/21 03:04:24;;;;;;;20.23;14.63;;;;;;;6.62;80.04;96595.75;4973211;28;20231;-68
2021/04/21 03:06:51;;;;;;;21.03;15.80;;;;;;;6.67;80.07;96596.75;4955115;28;20185;-68
2021/04/21 03:09:27;;;;;;;20.87;15.47;;;;;;;6.62;80.34;96598.38;4972915;28;20560;-68
2021/04/21 03:11:57;;;;;;;17.20;14.40;;;;;;;6.66;80.07;96591.72;4972325;28;20640;-69
2021/04/21 03:14:27;;;;;;;20.13;14.07;;;;;;;6.65;80.15;96588.31;4973155;28;20629;-69
2021/04/21 03:16:56;;;;;;;20.03;14.13;;;;;;;6.56;79.92;96592.19;4964782;28;20286;-68
2021/04/21 03:19:27;;;;;;;16.73;13.33;;;;;;;6.60;79.94;96590.75;4955837;28;20184;-69
2021/04/21 03:21:59;;;;;;;16.77;13.67;;;;;;;6.55;80.37;96585.34;4972167;28;20227;-69
2021/04/21 03:24:28;;;;;;;19.23;13.80;;;;;;;6.49;80.33;96583.56;4973147;28;20697;-68
2021/04/21 03:27:00;;;;;;;17.13;12.93;;;;;;;6.52;80.26;96588.34;4971650;28;20267;-69
2021/04/21 03:29:31;;;;;;;16.77;12.83;;;;;;;6.52;80.35;96595.41;4955360;28;20646;-70
2021/04/21 03:32:02;;;;;;;20.97;13.77;;;;;;;6.47;80.57;96582.16;4969023;28;20181;-69
2021/04/21 03:34:28;;;;;;;19.20;14.33;;;;;;;6.50;80.21;96579.97;4972544;28;20256;-68
2021/04/21 03:36:55;;;;;;;22.77;14.53;;;;;;;6.41;80.80;96586.41;4954551;28;20208;-68
2021/04/21 03:39:21;;;;;;;20.87;13.93;;;;;;;6.39;80.55;96583.22;4972297;28;20188;-68
2021/04/21 03:41:46;;;;;;;24.40;14.40;;;;;;;6.40;80.87;96581.41;4971339;28;20180;-68
2021/04/21 03:44:13;;;;;;;17.20;14.37;;;;;;;6.30;81.07;96579.22;4972642;28;20417;-68
2021/04/21 03:46:41;;;;;;;18.07;13.70;;;;;;;6.36;80.81;96583.59;4972695;28;20589;-68
2021/04/21 03:49:08;;;;;;;18.73;13.67;;;;;;;6.38;80.40;96583.41;4972057;28;20243;-67
2021/04/21 03:51:36;;;;;;;18.80;13.53;;;;;;;6.33;80.63;96578.03;4971875;28;20189;-68
2021/04/21 03:54:03;;;;;;;16.90;13.80;;;;;;;6.32;81.03;96576.41;4971805;28;20267;-68
2021/04/21 03:56:30;;;;;;;22.30;14.43;;;;;;;6.22;81.50;96582.84;4971859;28;20709;-68
2021/04/21 03:58:56;;;;;;;25.07;13.87;;;;;;;6.16;81.54;96580.28;4971746;28;20658;-68
2021/04/21 04:01:24;;;;;;;18.90;13.67;;;;;;;6.22;81.34;96577.66;4972516;28;20188;-68
2021/04/21 04:03:59;;;;;;;19.17;13.23;;;;;;;6.17;81.74;96574.88;4972259;28;20275;-68
2021/04/21 04:06:46;;;;;;;16.43;12.70;;;;;;;6.18;81.72;96580.88;4973089;28;20172;-69
2021/04/21 04:09:13;;;;;;;17.77;13.27;;;;;;;6.12;81.97;96572.09;4959817;28;20177;-68
2021/04/21 04:11:43;;;;;;;21.20;14.00;;;;;;;6.06;82.20;96574.69;4972480;28;20275;-68
2021/04/21 04:14:19;;;;;;;14.77;12.37;;;;;;;5.98;82.45;96570.50;4971820;28;20275;-68
2021/04/21 04:16:46;;;;;;;16.37;12.60;;;;;;;5.89;82.77;96576.91;4971729;28;20672;-72
2021/04/21 04:19:13;;;;;;;17.50;13.13;;;;;;;5.94;82.91;96574.50;4972898;28;20189;-68
2021/04/21 04:21:41;;;;;;;18.47;13.90;;;;;;;5.96;83.03;96569.09;4972116;28;20235;-68
2021/04/21 04:24:12;;;;;;;18.07;14.00;;;;;;;5.99;82.57;96573.91;4971156;28;20640;-68
2021/04/21 04:26:41;;;;;;;19.77;14.40;;;;;;;5.96;82.75;96585.53;4972086;28;20312;-67
2021/04/21 04:29:07;;;;;;;23.17;15.70;;;;;;;6.06;82.33;96578.09;4971483;28;20211;-68
2021/04/21 04:31:35;;;;;;;26.07;18.40;;;;;;;5.88;82.90;96577.91;4972171;28;20668;-68
2021/04/21 04:34:06;;;;;;;28.80;19.10;;;;;;;5.98;82.66;96587.91;4971408;28;20196;-69
2021/04/21 04:36:39;;;;;;;30.53;18.07;;;;;;;5.86;83.55;96590.28;4971663;28;20604;-68
2021/04/21 04:39:07;;;;;;;23.93;17.40;;;;;;;5.83;83.54;96588.09;4971155;28;20795;-68
2021/04/21 04:41:33;;;;;;;23.20;16.13;;;;;;;5.91;83.55;96580.09;4973483;28;20271;-68
2021/04/21 04:44:00;;;;;;;22.83;16.73;;;;;;;6.07;82.85;96587.50;4975165;28;20278;-68
2021/04/21 04:46:31;;;;;;;19.27;15.23;;;;;;;6.05;83.19;96591.28;4976084;28;20193;-69
2021/04/21 04:49:15;;;;;;;22.53;15.13;;;;;;;6.03;83.02;96590.69;4974861;28;20208;-68
2021/04/21 04:51:46;;;;;;;20.80;15.63;;;;;;;6.05;82.81;96579.09;4975542;28;20185;-68
2021/04/21 04:54:14;;;;;;;19.27;14.87;;;;;;;6.17;82.58;96587.88;4975546;28;20203;-68
2021/04/21 04:56:43;;;;;;;21.27;16.13;;;;;;;6.25;82.69;96592.84;4975398;28;20271;-68
2021/04/21 04:59:09;;;;;;;20.77;15.83;;;;;;;6.44;82.09;96593.81;4975254;28;20188;-68
2021/04/21 05:01:48;;;;;;;19.63;14.37;;;;;;;6.75;80.68;96603.50;4975382;28;20548;-68
2021/04/21 05:04:14;;;;;;;21.13;14.83;;;;;;;6.98;79.49;96601.19;4975503;28;20196;-68
2021/04/21 05:06:48;;;;;;;23.40;15.47;;;;;;;7.29;78.20;96602.25;4975140;28;20200;-68
2021/04/21 05:09:18;;;;;;;20.70;14.90;;;;;;;7.49;77.00;96605.50;4975366;28;20259;-68
2021/04/21 05:11:45;;;;;;;20.73;15.57;;;;;;;7.67;76.08;96608.19;4975045;28;20188;-72
2021/04/21 05:14:13;;;;;;;23.50;15.90;;;;;;;7.85;75.78;96613.47;4975511;28;20244;-68
2021/04/21 05:16:54;;;;;;;21.07;16.07;;;;;;;8.03;74.81;96609.28;4975378;28;20201;-68
2021/04/21 05:20:01;;;;;;;22.27;16.50;;;;;;;8.22;73.77;96616.16;4975687;28;20219;-68
2021/04/21 05:23:07;;;;;;;18.97;14.43;;;;;;;8.36;72.98;96609.03;4957743;28;20216;-68
2021/04/21 05:25:48;;;;;;;20.13;14.00;;;;;;;8.19;73.76;96613.97;4965032;28;20181;-70
2021/04/21 05:28:35;;;;;;;22.00;14.90;;;;;;;8.42;72.97;96615.97;4957351;28;20212;-69
2021/04/21 05:31:28;;;;;;;19.67;14.37;;;;;;;8.60;72.59;96614.16;4974354;28;20188;-68
2021/04/21 05:34:02;;;;;;;19.07;14.93;;;;;;;8.86;71.10;96620.13;4968072;28;20185;-68
2021/04/21 05:37:05;;;;;;;20.70;14.90;;;;;;;9.11;70.76;96616.38;4974492;28;20199;-69
2021/04/21 05:39:42;;;;;;;19.23;15.17;;;;;;;9.18;70.27;96626.75;4971897;28;20192;-69
2021/04/21 05:42:16;;;;;;;18.53;14.47;;;;;;;9.36;69.18;96634.53;4973848;28;20176;-68
2021/04/21 05:45:13;;;;;;;19.87;13.80;;;;;;;9.60;68.93;96624.94;4974902;28;20191;-68
2021/04/21 05:47:53;;;;;;;21.17;13.90;;;;;;;9.83;67.32;96624.19;4974127;28;20204;-67
2021/04/21 05:50:54;;;;;;;20.40;15.03;;;;;;;9.97;66.79;96628.22;4974880;28;20189;-67
2021/04/21 05:53:57;;;;;;;22.23;14.40;;;;;;;10.11;66.59;96634.81;4956851;28;20188;-68
2021/04/21 05:56:58;;;;;;;17.97;14.47;;;;;;;10.39;65.59;96629.72;4961938;28;20274;-68
2021/04/21 05:59:45;;;;;;;17.40;13.53;;;;;;;10.60;64.91;96625.72;4957339;28;20541;-69
2021/04/21 06:02:12;;;;;;;20.17;15.27;;;;;;;10.68;64.28;96628.00;4967432;28;20189;-68
2021/04/21 06:04:38;;;;;;;21.10;15.20;;;;;;;10.81;63.80;96632.97;4973904;28;20196;-68
2021/04/21 06:07:08;;;;;;;17.77;13.73;;;;;;;10.88;63.93;96632.03;4973881;28;20188;-68
2021/04/21 06:09:34;;;;;;;16.83;13.73;;;;;;;10.95;63.43;96635.31;4974624;28;20172;-68
2021/04/21 06:12:06;;;;;;;17.43;13.30;;;;;;;10.91;64.29;96634.22;4973265;28;20556;-68
2021/04/21 06:14:33;;;;;;;16.73;12.40;;;;;;;10.90;64.11;96636.03;4973971;28;20197;-67
2021/04/21 06:16:58;;;;;;;16.90;12.47;;;;;;;10.78;64.19;96640.50;4973226;28;20200;-68
2021/04/21 06:19:26;;;;;;;16.57;13.10;;;;;;;10.80;64.57;96647.13;4973838;28;20630;-67
2021/04/21 06:21:52;;;;;;;14.43;12.17;;;;;;;11.02;64.41;96639.44;4971980;28;20196;-69
2021/04/21 06:24:22;;;;;;;16.47;12.97;;;;;;;11.02;64.79;96649.13;4973567;28;20189;-68
2021/04/21 06:26:48;;;;;;;17.00;11.47;;;;;;;11.20;64.42;96643.72;4974223;28;20646;-71
2021/04/21 06:29:14;;;;;;;18.93;12.27;;;;;;;11.24;64.05;96644.81;4971729;28;20676;-69
2021/04/21 06:31:50;;;;;;;15.33;12.50;;;;;;;11.27;64.96;96653.00;4955343;28;20181;-69
2021/04/21 06:34:16;;;;;;;20.77;12.90;;;;;;;11.34;64.81;96654.72;4973768;28;20195;-69
2021/04/21 06:36:54;;;;;;;19.13;12.97;;;;;;;11.40;65.36;96656.41;4973048;28;20215;-69
2021/04/21 06:39:22;;;;;;;16.83;12.33;;;;;;;11.58;65.06;96656.22;4973275;28;20255;-70
2021/04/21 06:41:54;;;;;;;19.17;13.57;;;;;;;11.51;65.25;96652.94;4972521;28;21052;-70
2021/04/21 06:44:42;;;;;;;16.83;12.90;;;;;;;11.65;64.02;96649.75;4973449;28;20192;-70
2021/04/21 06:47:28;;;;;;;13.90;11.93;;;;;;;11.72;64.63;96659.31;4972874;28;20189;-69
2021/04/21 06:49:59;;;;;;;17.03;13.20;;;;;;;11.76;64.19;96663.88;4957257;28;20200;-69
2021/04/21 06:52:39;;;;;;;18.37;13.10;;;;;;;11.96;63.53;96653.75;4973192;28;20676;-70
2021/04/21 06:55:22;;;;;;;21.50;13.33;;;;;;;11.89;62.84;96654.91;4971583;28;20187;-69
2021/04/21 06:57:48;;;;;;;16.40;13.10;;;;;;;12.07;62.77;96659.94;4971569;28;20228;-70
2021/04/21 07:00:17;;;;;;;20.33;13.73;;;;;;;12.28;62.25;96653.16;4972677;28;20262;-68
2021/04/21 07:02:47;;;;;;;17.37;13.13;;;;;;;12.33;62.09;96654.03;4972407;28;20181;-69
2021/04/21 07:05:41;;;;;;;16.90;12.63;;;;;;;12.60;61.45;96659.41;4971582;28;20212;-69
2021/04/21 07:08:09;;;;;;;16.50;13.07;;;;;;;12.60;61.59;96662.03;4970839;28;20207;-68
2021/04/21 07:10:53;;;;;;;16.40;13.13;;;;;;;12.69;60.56;96657.19;4972742;28;20193;-68
2021/04/21 07:13:22;;;;;;;19.07;13.60;;;;;;;12.63;61.06;96658.16;4972579;28;20177;-68
2021/04/21 07:15:50;;;;;;;18.73;13.90;;;;;;;12.81;61.17;96666.56;4972220;28;20227;-70
2021/04/21 07:18:19;;;;;;;19.00;14.40;;;;;;;12.93;60.67;96656.69;4972282;28;20583;-68
2021/04/21 07:20:45;;;;;;;18.87;13.77;;;;;;;13.01;60.99;96660.75;4972900;28;20677;-67
2021/04/21 07:23:12;;;;;;;16.63;14.47;;;;;;;13.10;60.38;96663.75;4954474;28;20639;-67
2021/04/21 07:25:39;;;;;;;17.20;14.20;;;;;;;13.28;59.79;96668.72;4954936;28;20192;-68
2021/04/21 07:28:06;;;;;;;17.77;14.67;;;;;;;13.39;58.94;96665.16;4971940;28;20642;-67
2021/04/21 07:30:32;;;;;;;18.40;13.97;;;;;;;13.44;59.21;96661.78;4972099;28;20597;-67
2021/04/21 07:32:59;;;;;;;19.63;14.30;;;;;;;13.54;59.18;96672.44;4954626;28;20642;-67
2021/04/21 07:35:27;;;;;;;20.03;15.23;;;;;;;13.60;56.63;96666.16;4955103;28;20184;-68
2021/04/21 07:37:56;;;;;;;18.00;14.50;;;;;;;13.71;55.70;96663.38;4971183;28;20210;-68
2021/04/21 07:40:30;;;;;;;18.13;14.13;;;;;;;13.88;57.04;96662.47;4972291;28;20288;-68
2021/04/21 07:43:22;;;;;;;19.63;15.50;;;;;;;14.10;55.96;96666.63;4971782;28;20243;-68
2021/04/21 07:46:01;;;;;;;20.17;14.97;;;;;;;14.15;55.77;96665.91;4963853;28;20193;-70
2021/04/21 07:48:33;;;;;;;18.77;14.97;;;;;;;14.06;56.61;96670.81;4972323;28;20215;-68
2021/04/21 07:51:21;;;;;;;19.50;15.60;;;;;;;13.96;56.84;96665.47;4952908;28;20227;-68
2021/04/21 07:54:15;;;;;;;20.63;15.80;;;;;;;13.95;57.23;96668.34;4959627;28;20197;-69
2021/04/21 07:56:51;;;;;;;20.97;14.57;;;;;;;13.97;58.56;96672.34;4971209;28;20236;-67
2021/04/21 07:59:21;;;;;;;20.10;15.13;;;;;;;14.06;57.91;96673.47;4971551;28;20898;-67
2021/04/21 08:01:47;;;;;;;21.40;15.67;;;;;;;13.99;57.49;96680.75;4972438;28;20192;-68
2021/04/21 08:04:24;;;;;;;21.93;15.30;;;;;;;13.84;57.85;96669.31;4972205;28;20239;-68
2021/04/21 08:06:53;;;;;;;20.87;15.07;;;;;;;13.92;58.60;96674.13;4971447;28;20192;-69
2021/04/21 08:09:19;;;;;;;19.10;15.23;;;;;;;14.03;57.22;96683.72;4972311;28;20603;-68
2021/04/21 08:11:45;;;;;;;19.73;15.17;;;;;;;14.15;56.85;96682.47;4972042;28;20279;-69
2021/04/21 08:14:12;;;;;;;18.63;15.13;;;;;;;14.18;56.72;96683.84;4971741;28;20283;-66
2021/04/21 08:16:40;;;;;;;18.40;15.03;;;;;;;14.19;55.80;96682.78;4975739;28;20258;-67
2021/04/21 08:19:14;;;;;;;23.50;15.93;;;;;;;14.33;55.12;96680.50;4975573;28;20194;-67
2021/04/21 08:21:43;;;;;;;20.33;15.67;;;;;;;14.24;55.48;96684.66;4975769;28;20199;-67
2021/04/21 08:24:14;;;;;;;19.10;15.67;;;;;;;14.42;53.16;96687.75;4958523;28;20312;-69
2021/04/21 08:26:54;;;;;;;20.53;15.60;;;;;;;14.46;53.73;96680.91;4975527;28;20654;-68
2021/04/21 08:29:20;;;;;;;18.93;16.43;;;;;;;14.44;53.23;96685.63;4975973;28;20646;-67
2021/04/21 08:31:51;;;;;;;18.77;15.90;;;;;;;14.45;53.55;96683.81;4975110;28;20196;-67
2021/04/21 08:34:17;;;;;;;19.47;15.40;;;;;;;14.53;52.99;96685.97;4975536;28;20177;-67
2021/04/21 08:36:43;;;;;;;18.20;15.70;;;;;;;14.57;52.30;96682.56;4957737;28;20692;-67
2021/04/21 08:39:09;;;;;;;21.10;16.20;;;;;;;14.77;52.04;96692.44;4974823;28;20189;-67
2021/04/21 08:41:39;;;;;;;21.60;15.67;;;;;;;14.80;53.10;96688.53;4975197;28;20196;-67
2021/04/21 08:44:05;;;;;;;19.07;15.23;;;;;;;14.84;53.67;96689.59;4974988;28;20188;-67
2021/04/21 08:46:31;;;;;;;17.33;15.00;;;;;;;14.78;53.56;96687.97;4975576;28;20185;-68
2021/04/21 08:49:01;;;;;;;18.43;15.60;;;;;;;14.87;54.00;96689.88;4974863;28;20242;-68
2021/04/21 08:51:28;;;;;;;17.33;15.53;;;;;;;14.85;54.15;96685.91;4975302;28;20196;-68
2021/04/21 08:53:57;;;;;;;18.17;15.60;;;;;;;14.98;53.45;96682.81;4966731;28;20193;-68
2021/04/21 08:56:25;;;;;;;17.50;15.50;;;;;;;15.12;52.82;96683.13;4974701;28;20389;-67
2021/04/21 08:58:51;;;;;;;15.93;13.73;;;;;;;15.12;49.99;96683.94;4957521;28;20188;-69
2021/04/21 09:01:18;;;;;;;15.37;13.67;;;;;;;14.79;50.23;96693.00;4975137;28;20193;-67
2021/04/21 09:03:47;;;;;;;17.10;14.50;;;;;;;14.47;52.30;96685.16;4957840;28;20273;-67
2021/04/21 09:06:15;;;;;;;15.73;13.83;;;;;;;14.39;52.83;96684.81;4974676;28;20375;-68
2021/04/21 09:08:42;;;;;;;15.90;13.50;;;;;;;14.42;51.95;96682.47;4975352;28;20263;-67
2021/04/21 09:11:08;;;;;;;16.90;14.23;;;;;;;14.81;52.01;96679.56;4974289;28;20677;-68
2021/04/21 09:13:33;;;;;;;17.77;15.00;;;;;;;14.97;52.04;96689.13;4974882;28;20177;-68
2021/04/21 09:15:59;;;;;;;16.57;13.83;;;;;;;14.60;51.39;96691.03;4974067;28;20669;-66
2021/04/21 09:18:28;;;;;;;16.20;12.90;;;;;;;14.70;52.12;96685.81;4975088;28;20189;-66
2021/04/21 09:20:54;;;;;;;13.73;11.70;;;;;;;14.52;48.39;96681.75;4973162;28;20193;-67
2021/04/21 09:23:20;;;;;;;14.00;12.07;;;;;;;14.48;48.37;96689.38;4975180;28;20185;-69
2021/04/21 09:25:54;;;;;;;14.50;12.93;;;;;;;14.46;49.61;96680.13;4974207;28;20176;-67
2021/04/21 09:28:21;;;;;;;16.57;13.33;;;;;;;14.19;48.62;96682.78;4956958;28;20181;-68
2021/04/21 09:30:58;;;;;;;16.33;13.60;;;;;;;14.25;49.47;96686.25;4974384;28;20649;-68
2021/04/21 09:33:28;;;;;;;14.53;12.23;;;;;;;14.28;47.94;96681.28;4963122;28;20181;-68
2021/04/21 09:35:54;;;;;;;14.63;11.80;;;;;;;14.28;47.85;96673.38;4973165;28;20203;-68
2021/04/21 09:38:27;;;;;;;12.77;11.43;;;;;;;14.28;47.37;96677.84;4974949;28;20552;-68
2021/04/21 09:41:03;;;;;;;12.97;11.57;;;;;;;14.25;46.53;96684.44;4973677;28;20180;-69
2021/04/21 09:43:35;;;;;;;13.77;11.80;;;;;;;14.12;46.17;96674.28;4956852;28;20184;-66
2021/04/21 09:46:03;;;;;;;13.60;12.00;;;;;;;14.08;47.15;96678.47;4971836;28;20267;-66
2021/04/21 09:48:35;;;;;;;13.07;11.73;;;;;;;13.81;45.42;96673.25;4974179;28;20181;-68
2021/04/21 09:51:09;;;;;;;15.83;11.63;;;;;;;14.02;46.52;96669.75;4973253;28;20267;-69
2021/04/21 09:53:42;;;;;;;12.93;11.60;;;;;;;14.37;46.38;96676.38;4974091;28;20264;-68
2021/04/21 09:56:11;;;;;;;13.47;11.27;;;;;;;14.24;44.68;96671.50;4972765;28;20243;-68
2021/04/21 09:58:48;;;;;;;12.87;11.53;;;;;;;14.11;46.56;96673.50;4974307;28;20271;-68
2021/04/21 10:01:32;;;;;;;14.27;12.33;;;;;;;14.32;47.03;96665.75;4973635;28;20220;-67
2021/04/21 10:04:04;;;;;;;15.97;12.80;;;;;;;14.25;46.39;96668.59;4973692;28;20184;-68
2021/04/21 10:06:29;;;;;;;13.50;12.07;;;;;;;14.19;45.92;96669.63;4973366;28;20730;-68
2021/04/21 10:08:55;;;;;;;13.97;12.47;;;;;;;14.26;48.50;96662.28;4966018;28;20197;-68
2021/04/21 10:11:21;;;;;;;14.97;11.73;;;;;;;14.36;46.45;96664.19;4973646;28;20260;-68
2021/04/21 10:13:55;;;;;;;12.83;10.70;;;;;;;14.30;44.75;96659.94;4956753;28;20532;-68
2021/04/21 10:16:21;;;;;;;11.30;10.17;;;;;;;14.52;45.08;96665.91;4974201;28;20675;-68
2021/04/21 10:18:48;;;;;;;11.53;9.90;;;;;;;14.73;44.28;96661.56;4973472;28;20283;-68
2021/04/21 10:21:16;;;;;;;11.87;10.67;;;;;;;14.77;44.09;96662.63;4973055;28;20188;-68
2021/04/21 10:23:48;;;;;;;12.73;11.43;;;;;;;14.65;44.49;96660.22;4973474;28;20204;-69
2021/04/21 10:26:16;;;;;;;12.20;11.00;;;;;;;14.57;44.38;96653.56;4972650;28;20184;-68
2021/04/21 10:28:44;;;;;;;11.33;10.17;;;;;;;14.44;42.82;96659.28;4973246;28;20199;-68
2021/04/21 10:31:12;;;;;;;12.40;9.97;;;;;;;14.50;42.64;96654.81;4960457;28;20971;-68
2021/04/21 10:33:38;;;;;;;10.60;9.43;;;;;;;14.54;42.36;96661.97;4973237;28;20199;-68
2021/04/21 10:36:06;;;;;;;11.10;10.00;;;;;;;14.52;42.86;96653.53;4972081;28;20188;-70
2021/04/21 10:38:32;;;;;;;10.70;9.60;;;;;;;14.74;41.96;96655.22;4955134;28;20196;-69
2021/04/21 10:41:36;;;;;;;12.00;10.13;;;;;;;14.79;42.49;96656.06;4972697;28;20191;-68
2021/04/21 10:44:13;;;;;;;11.80;10.20;;;;;;;14.70;42.56;96654.16;4955637;28;20172;-67
2021/04/21 10:47:09;;;;;;;11.17;10.03;;;;;;;14.77;42.43;96655.50;4973480;28;20267;-68
2021/04/21 10:49:48;;;;;;;12.07;10.87;;;;;;;14.65;41.93;96647.03;4955865;28;20666;-68
2021/04/21 10:52:14;;;;;;;9.37;8.47;;;;;;;14.74;40.31;96642.84;4972463;28;20224;-67
2021/04/21 10:54:40;;;;;;;11.30;10.20;;;;;;;14.97;42.65;96631.06;4973580;28;20216;-67
2021/04/21 10:57:20;;;;;;;12.20;11.00;;;;;;;15.04;42.54;96633.47;4972083;28;20225;-68
2021/04/21 11:00:25;;;;;;;11.30;10.17;;;;;;;15.06;42.20;96618.97;4973367;28;21832;-67
2021/04/21 11:03:12;;;;;;;20.30;11.73;;;;;;;14.98;42.21;96624.75;4955818;28;20184;-67
2021/04/21 11:05:41;;;;;;;13.13;10.67;;;;;;;14.95;42.22;96618.13;4972813;28;20187;-67
2021/04/21 11:08:09;;;;;;;10.77;9.70;;;;;;;15.06;42.20;96618.97;4971980;28;20203;-67
2021/04/21 11:10:38;;;;;;;11.37;10.23;;;;;;;15.28;42.35;96616.91;4972039;28;20184;-67
2021/04/21 11:13:06;;;;;;;13.13;11.23;;;;;;;15.17;41.32;96625.06;4972037;28;20653;-67
2021/04/21 11:15:52;;;;;;;12.60;11.10;;;;;;;15.03;42.33;96610.78;4972442;28;20180;-67
2021/04/21 11:18:24;;;;;;;12.73;10.90;;;;;;;15.06;41.42;96626.09;4971327;28;20189;-67
2021/04/21 11:21:02;;;;;;;11.13;10.03;;;;;;;15.28;41.55;96611.63;4972583;28;20188;-67
2021/04/21 11:23:47;;;;;;;11.37;10.10;;;;;;;15.17;40.51;96612.66;4973025;28;20315;-66
2021/04/21 11:28:54;;;;;;;13.40;9.80;;;;;;;15.15;39.58;96619.25;4972669;28;20653;-67
2021/04/21 11:31:20;;;;;;;10.53;9.53;;;;;;;15.33;39.80;96609.00;4955150;28;20284;-67
2021/04/21 11:33:49;;;;;;;11.60;9.70;;;;;;;15.52;39.49;96603.25;4972463;28;20188;-67
2021/04/21 11:36:34;;;;;;;11.32;9.70;;;;;;;15.64;39.27;96609.09;4971696;28;21062;-68
2021/04/21 11:38:59;;;;;;;12.67;10.97;;;;;;;15.69;38.73;96607.25;4956997;28;20180;-66
2021/04/21 11:41:24;;;;;;;11.70;10.50;;;;;;;15.83;38.68;96593.53;4972413;28;20212;-66
2021/04/21 11:43:50;;;;;;;10.17;9.17;;;;;;;15.98;38.95;96596.16;4971930;28;20271;-67
2021/04/21 11:47:02;;;;;;;11.90;10.50;;;;;;;15.74;38.88;96595.91;4971367;28;20220;-67
2021/04/21 11:50:02;;;;;;;10.33;9.17;;;;;;;15.74;38.21;96598.53;4958350;28;20240;-67
2021/04/21 11:53:02;;;;;;;11.20;10.10;;;;;;;15.87;38.67;96595.38;4971995;28;20193;-67
2021/04/21 11:55:30;;;;;;;9.10;8.30;;;;;;;15.85;36.39;96600.13;4967773;28;20746;-67